sensor_id;sensor_type;location;lat;lon;timestamp;temperature;humidity
1351;DHT22;669;50.206;9.998;2024-01-27T00:00:52;2.20;22.70
1351;DHT22;669;50.206;9.998;2024-01-27T00:03:20;2.20;22.50
1351;DHT22;669;50.206;9.998;2024-01-27T00:05:50;2.20;22.80
1351;DHT22;669;50.206;9.998;2024-01-27T00:08:18;2.20;22.70
1351;DHT22;669;50.206;9.998;2024-01-27T00:10:46;2.20;22.60
1351;DHT22;669;50.206;9.998;2024-01-27T00:13:14;2.20;22.60
1351;DHT22;669;50.206;9.998;2024-01-27T00:15:42;2.20;22.90
1351;DHT22;669;50.206;9.998;2024-01-27T00:18:10;2.20;23.00
1351;DHT22;669;50.206;9.998;2024-01-27T00:20:38;2.20;23.30
1351;DHT22;669;50.206;9.998;2024-01-27T00:23:08;2.20;23.30
1351;DHT22;669;50.206;9.998;2024-01-27T00:25:36;2.20;23.30
1351;DHT22;669;50.206;9.998;2024-01-27T00:28:04;2.20;23.30
1351;DHT22;669;50.206;9.998;2024-01-27T00:30:32;2.20;23.30
1351;DHT22;669;50.206;9.998;2024-01-27T00:33:00;2.20;23.30
1351;DHT22;669;50.206;9.998;2024-01-27T00:35:29;2.20;23.30
1351;DHT22;669;50.206;9.998;2024-01-27T00:37:57;2.10;23.60
1351;DHT22;669;50.206;9.998;2024-01-27T00:40:26;2.10;23.50
1351;DHT22;669;50.206;9.998;2024-01-27T00:42:54;2.10;23.50
1351;DHT22;669;50.206;9.998;2024-01-27T00:45:22;2.10;23.20
1351;DHT22;669;50.206;9.998;2024-01-27T00:47:50;2.10;23.30
1351;DHT22;669;50.206;9.998;2024-01-27T00:50:18;2.10;23.60
1351;DHT22;669;50.206;9.998;2024-01-27T00:52:46;2.10;23.30
1351;DHT22;669;50.206;9.998;2024-01-27T00:55:14;2.00;23.60
1351;DHT22;669;50.206;9.998;2024-01-27T00:57:44;2.00;23.40
1351;DHT22;669;50.206;9.998;2024-01-27T01:00:12;2.00;23.20
1351;DHT22;669;50.206;9.998;2024-01-27T01:02:41;1.90;23.80
1351;DHT22;669;50.206;9.998;2024-01-27T01:05:09;1.90;24.10
1351;DHT22;669;50.206;9.998;2024-01-27T01:07:37;1.90;24.50
1351;DHT22;669;50.206;9.998;2024-01-27T01:10:06;1.90;24.40
1351;DHT22;669;50.206;9.998;2024-01-27T01:12:34;1.80;24.70
1351;DHT22;669;50.206;9.998;2024-01-27T01:15:04;1.80;24.90
1351;DHT22;669;50.206;9.998;2024-01-27T01:17:32;1.80;25.10
1351;DHT22;669;50.206;9.998;2024-01-27T01:20:00;1.80;24.30
1351;DHT22;669;50.206;9.998;2024-01-27T01:22:28;1.70;24.60
1351;DHT22;669;50.206;9.998;2024-01-27T01:24:56;1.60;24.20
1351;DHT22;669;50.206;9.998;2024-01-27T01:27:24;1.50;24.20
1351;DHT22;669;50.206;9.998;2024-01-27T01:29:52;1.40;24.80
1351;DHT22;669;50.206;9.998;2024-01-27T01:32:22;1.40;25.20
1351;DHT22;669;50.206;9.998;2024-01-27T01:34:50;1.40;26.10
1351;DHT22;669;50.206;9.998;2024-01-27T01:37:18;1.30;26.50
1351;DHT22;669;50.206;9.998;2024-01-27T01:39:46;1.30;26.50
1351;DHT22;669;50.206;9.998;2024-01-27T01:42:14;1.30;26.50
1351;DHT22;669;50.206;9.998;2024-01-27T01:44:42;1.30;27.70
1351;DHT22;669;50.206;9.998;2024-01-27T01:47:10;1.20;27.00
1351;DHT22;669;50.206;9.998;2024-01-27T01:49:40;1.20;27.00
1351;DHT22;669;50.206;9.998;2024-01-27T01:52:08;1.10;26.40
1351;DHT22;669;50.206;9.998;2024-01-27T01:54:37;1.00;26.30
1351;DHT22;669;50.206;9.998;2024-01-27T01:57:05;0.90;26.30
1351;DHT22;669;50.206;9.998;2024-01-27T01:59:33;0.90;26.80
1351;DHT22;669;50.206;9.998;2024-01-27T02:02:07;0.80;27.40
1351;DHT22;669;50.206;9.998;2024-01-27T02:04:41;0.70;27.50
1351;DHT22;669;50.206;9.998;2024-01-27T02:07:09;0.70;28.70
1351;DHT22;669;50.206;9.998;2024-01-27T02:09:37;0.70;28.90
1351;DHT22;669;50.206;9.998;2024-01-27T02:12:06;0.60;29.20
1351;DHT22;669;50.206;9.998;2024-01-27T02:14:34;0.60;29.60
1351;DHT22;669;50.206;9.998;2024-01-27T02:17:02;0.60;29.50
1351;DHT22;669;50.206;9.998;2024-01-27T02:19:31;0.50;29.80
1351;DHT22;669;50.206;9.998;2024-01-27T02:22:00;0.60;29.80
1351;DHT22;669;50.206;9.998;2024-01-27T02:24:30;0.50;29.70
1351;DHT22;669;50.206;9.998;2024-01-27T02:26:58;0.50;29.70
1351;DHT22;669;50.206;9.998;2024-01-27T02:29:26;0.40;29.90
1351;DHT22;669;50.206;9.998;2024-01-27T02:31:55;0.40;30.70
1351;DHT22;669;50.206;9.998;2024-01-27T02:34:23;0.40;30.80
1351;DHT22;669;50.206;9.998;2024-01-27T02:36:51;0.40;30.90
1351;DHT22;669;50.206;9.998;2024-01-27T02:39:19;0.40;32.20
1351;DHT22;669;50.206;9.998;2024-01-27T02:41:49;0.40;32.10
1351;DHT22;669;50.206;9.998;2024-01-27T02:44:17;0.40;33.00
1351;DHT22;669;50.206;9.998;2024-01-27T02:46:45;0.40;33.10
1351;DHT22;669;50.206;9.998;2024-01-27T02:49:13;0.50;34.10
1351;DHT22;669;50.206;9.998;2024-01-27T02:51:41;0.50;33.70
1351;DHT22;669;50.206;9.998;2024-01-27T02:54:09;0.60;34.40
1351;DHT22;669;50.206;9.998;2024-01-27T02:56:37;0.60;34.20
1351;DHT22;669;50.206;9.998;2024-01-27T02:59:06;0.70;34.20
1351;DHT22;669;50.206;9.998;2024-01-27T03:01:34;0.70;34.50
1351;DHT22;669;50.206;9.998;2024-01-27T03:04:02;0.80;33.80
1351;DHT22;669;50.206;9.998;2024-01-27T03:06:31;0.80;33.20
1351;DHT22;669;50.206;9.998;2024-01-27T03:08:59;0.80;32.50
1351;DHT22;669;50.206;9.998;2024-01-27T03:11:27;0.80;32.10
1351;DHT22;669;50.206;9.998;2024-01-27T03:13:54;0.90;32.00
1351;DHT22;669;50.206;9.998;2024-01-27T03:16:24;0.90;31.80
1351;DHT22;669;50.206;9.998;2024-01-27T03:18:52;0.90;31.40
1351;DHT22;669;50.206;9.998;2024-01-27T03:21:20;0.90;31.00
1351;DHT22;669;50.206;9.998;2024-01-27T03:23:48;0.90;30.40
1351;DHT22;669;50.206;9.998;2024-01-27T03:26:17;0.90;30.10
1351;DHT22;669;50.206;9.998;2024-01-27T03:28:45;0.80;29.90
1351;DHT22;669;50.206;9.998;2024-01-27T03:31:12;0.80;29.90
1351;DHT22;669;50.206;9.998;2024-01-27T03:33:42;0.80;30.10
1351;DHT22;669;50.206;9.998;2024-01-27T03:36:11;0.80;30.50
1351;DHT22;669;50.206;9.998;2024-01-27T03:38:40;0.70;29.50
1351;DHT22;669;50.206;9.998;2024-01-27T03:41:08;0.60;29.20
1351;DHT22;669;50.206;9.998;2024-01-27T03:43:36;0.60;29.20
1351;DHT22;669;50.206;9.998;2024-01-27T03:46:04;0.50;29.40
1351;DHT22;669;50.206;9.998;2024-01-27T03:48:32;0.40;29.70
1351;DHT22;669;50.206;9.998;2024-01-27T03:51:03;0.40;30.10
1351;DHT22;669;50.206;9.998;2024-01-27T03:53:31;0.40;30.70
1351;DHT22;669;50.206;9.998;2024-01-27T03:55:59;0.30;30.60
1351;DHT22;669;50.206;9.998;2024-01-27T03:58:29;0.30;30.40
1351;DHT22;669;50.206;9.998;2024-01-27T04:00:57;0.30;30.90
1351;DHT22;669;50.206;9.998;2024-01-27T04:03:25;0.20;30.40
1351;DHT22;669;50.206;9.998;2024-01-27T04:05:53;0.20;30.80
1351;DHT22;669;50.206;9.998;2024-01-27T04:08:22;0.20;30.10
1351;DHT22;669;50.206;9.998;2024-01-27T04:10:50;0.10;30.20
1351;DHT22;669;50.206;9.998;2024-01-27T04:13:18;0.10;30.50
1351;DHT22;669;50.206;9.998;2024-01-27T04:15:46;0.00;31.40
1351;DHT22;669;50.206;9.998;2024-01-27T04:18:14;0.00;31.20
1351;DHT22;669;50.206;9.998;2024-01-27T04:20:42;0.00;31.70
1351;DHT22;669;50.206;9.998;2024-01-27T04:23:12;0.00;32.10
1351;DHT22;669;50.206;9.998;2024-01-27T04:25:42;0.00;32.60
1351;DHT22;669;50.206;9.998;2024-01-27T04:28:10;0.00;32.20
1351;DHT22;669;50.206;9.998;2024-01-27T04:30:39;0.10;32.70
1351;DHT22;669;50.206;9.998;2024-01-27T04:33:07;0.10;32.60
1351;DHT22;669;50.206;9.998;2024-01-27T04:35:36;0.10;33.00
1351;DHT22;669;50.206;9.998;2024-01-27T04:38:04;0.20;32.80
1351;DHT22;669;50.206;9.998;2024-01-27T04:40:31;0.20;32.20
1351;DHT22;669;50.206;9.998;2024-01-27T04:43:01;0.30;32.20
1351;DHT22;669;50.206;9.998;2024-01-27T04:45:29;0.30;31.80
1351;DHT22;669;50.206;9.998;2024-01-27T04:47:57;0.30;31.30
1351;DHT22;669;50.206;9.998;2024-01-27T04:50:27;0.30;30.80
1351;DHT22;669;50.206;9.998;2024-01-27T04:52:55;0.30;30.90
1351;DHT22;669;50.206;9.998;2024-01-27T04:55:23;0.30;30.60
1351;DHT22;669;50.206;9.998;2024-01-27T04:57:51;0.30;30.50
1351;DHT22;669;50.206;9.998;2024-01-27T05:00:21;0.30;30.50
1351;DHT22;669;50.206;9.998;2024-01-27T05:02:49;0.30;29.70
1351;DHT22;669;50.206;9.998;2024-01-27T05:05:17;0.30;28.40
1351;DHT22;669;50.206;9.998;2024-01-27T05:07:45;0.20;27.90
1351;DHT22;669;50.206;9.998;2024-01-27T05:10:15;0.10;28.70
1351;DHT22;669;50.206;9.998;2024-01-27T05:12:43;0.10;28.30
1351;DHT22;669;50.206;9.998;2024-01-27T05:15:11;-0.10;28.00
1351;DHT22;669;50.206;9.998;2024-01-27T05:17:40;-0.10;29.30
1351;DHT22;669;50.206;9.998;2024-01-27T05:20:08;-0.20;29.30
1351;DHT22;669;50.206;9.998;2024-01-27T05:22:36;-0.20;30.20
1351;DHT22;669;50.206;9.998;2024-01-27T05:25:05;-0.20;30.40
1351;DHT22;669;50.206;9.998;2024-01-27T05:27:33;-0.20;31.40
1351;DHT22;669;50.206;9.998;2024-01-27T05:30:01;-0.20;32.00
1351;DHT22;669;50.206;9.998;2024-01-27T05:32:29;-0.20;32.40
1351;DHT22;669;50.206;9.998;2024-01-27T05:34:58;-0.20;32.40
1351;DHT22;669;50.206;9.998;2024-01-27T05:37:26;-0.20;31.60
1351;DHT22;669;50.206;9.998;2024-01-27T05:39:54;-0.20;32.40
1351;DHT22;669;50.206;9.998;2024-01-27T05:42:22;-0.30;31.10
1351;DHT22;669;50.206;9.998;2024-01-27T05:44:50;-0.40;30.80
1351;DHT22;669;50.206;9.998;2024-01-27T05:47:18;-0.40;31.80
1351;DHT22;669;50.206;9.998;2024-01-27T05:49:46;-0.50;32.80
1351;DHT22;669;50.206;9.998;2024-01-27T05:52:15;-0.50;35.00
1351;DHT22;669;50.206;9.998;2024-01-27T05:54:51;-0.40;35.10
1351;DHT22;669;50.206;9.998;2024-01-27T05:57:20;-0.40;34.90
1351;DHT22;669;50.206;9.998;2024-01-27T05:59:48;-0.40;35.10
1351;DHT22;669;50.206;9.998;2024-01-27T06:02:16;-0.30;36.30
1351;DHT22;669;50.206;9.998;2024-01-27T06:04:45;-0.20;36.80
1351;DHT22;669;50.206;9.998;2024-01-27T06:07:14;-0.20;35.20
1351;DHT22;669;50.206;9.998;2024-01-27T06:09:42;-0.10;35.80
1351;DHT22;669;50.206;9.998;2024-01-27T06:12:10;0.00;36.00
1351;DHT22;669;50.206;9.998;2024-01-27T06:14:40;0.00;34.60
1351;DHT22;669;50.206;9.998;2024-01-27T06:17:08;-0.10;32.60
1351;DHT22;669;50.206;9.998;2024-01-27T06:19:36;-0.10;34.60
1351;DHT22;669;50.206;9.998;2024-01-27T06:22:05;0.00;36.30
1351;DHT22;669;50.206;9.998;2024-01-27T06:24:34;0.10;35.60
1351;DHT22;669;50.206;9.998;2024-01-27T06:27:02;0.10;34.50
1351;DHT22;669;50.206;9.998;2024-01-27T06:29:30;0.20;34.80
1351;DHT22;669;50.206;9.998;2024-01-27T06:31:58;0.20;34.70
1351;DHT22;669;50.206;9.998;2024-01-27T06:34:26;0.20;34.60
1351;DHT22;669;50.206;9.998;2024-01-27T06:36:54;0.20;34.80
1351;DHT22;669;50.206;9.998;2024-01-27T06:39:22;0.20;35.00
1351;DHT22;669;50.206;9.998;2024-01-27T06:41:51;0.20;35.00
1351;DHT22;669;50.206;9.998;2024-01-27T06:44:19;0.20;34.10
1351;DHT22;669;50.206;9.998;2024-01-27T06:46:47;0.20;32.40
1351;DHT22;669;50.206;9.998;2024-01-27T06:49:16;0.10;32.70
1351;DHT22;669;50.206;9.998;2024-01-27T06:51:44;0.10;32.20
1351;DHT22;669;50.206;9.998;2024-01-27T06:54:12;-0.10;30.70
1351;DHT22;669;50.206;9.998;2024-01-27T06:56:40;-0.10;30.80
1351;DHT22;669;50.206;9.998;2024-01-27T06:59:09;-0.20;32.10
1351;DHT22;669;50.206;9.998;2024-01-27T07:01:37;-0.20;31.70
1351;DHT22;669;50.206;9.998;2024-01-27T07:04:06;-0.30;31.70
1351;DHT22;669;50.206;9.998;2024-01-27T07:06:35;-0.30;32.40
1351;DHT22;669;50.206;9.998;2024-01-27T07:09:03;-0.30;33.10
1351;DHT22;669;50.206;9.998;2024-01-27T07:11:31;-0.30;33.70
1351;DHT22;669;50.206;9.998;2024-01-27T07:13:59;-0.30;33.70
1351;DHT22;669;50.206;9.998;2024-01-27T07:16:28;-0.40;31.10
1351;DHT22;669;50.206;9.998;2024-01-27T07:18:56;-0.40;31.60
1351;DHT22;669;50.206;9.998;2024-01-27T07:21:24;-0.40;31.80
1351;DHT22;669;50.206;9.998;2024-01-27T07:23:53;-0.50;32.20
1351;DHT22;669;50.206;9.998;2024-01-27T07:26:21;-0.50;32.40
1351;DHT22;669;50.206;9.998;2024-01-27T07:28:49;-0.40;33.00
1351;DHT22;669;50.206;9.998;2024-01-27T07:31:17;-0.40;32.60
1351;DHT22;669;50.206;9.998;2024-01-27T07:33:46;-0.40;32.90
1351;DHT22;669;50.206;9.998;2024-01-27T07:36:15;-0.40;33.60
1351;DHT22;669;50.206;9.998;2024-01-27T07:38:43;-0.30;34.10
1351;DHT22;669;50.206;9.998;2024-01-27T07:41:11;-0.20;34.90
1351;DHT22;669;50.206;9.998;2024-01-27T07:43:40;0.20;37.90
1351;DHT22;669;50.206;9.998;2024-01-27T07:46:08;0.50;35.80
1351;DHT22;669;50.206;9.998;2024-01-27T07:48:36;0.80;35.50
1351;DHT22;669;50.206;9.998;2024-01-27T07:51:06;1.20;35.80
1351;DHT22;669;50.206;9.998;2024-01-27T07:53:34;1.70;34.20
1351;DHT22;669;50.206;9.998;2024-01-27T07:56:02;2.10;32.20
1351;DHT22;669;50.206;9.998;2024-01-27T07:58:33;2.40;27.60
1351;DHT22;669;50.206;9.998;2024-01-27T08:01:01;2.70;25.20
1351;DHT22;669;50.206;9.998;2024-01-27T08:03:30;3.00;23.80
1351;DHT22;669;50.206;9.998;2024-01-27T08:05:58;3.30;22.70
1351;DHT22;669;50.206;9.998;2024-01-27T08:08:27;3.60;20.40
1351;DHT22;669;50.206;9.998;2024-01-27T08:10:55;3.90;20.50
1351;DHT22;669;50.206;9.998;2024-01-27T08:13:23;4.20;16.80
1351;DHT22;669;50.206;9.998;2024-01-27T08:15:51;4.30;14.40
1351;DHT22;669;50.206;9.998;2024-01-27T08:18:20;4.60;14.70
1351;DHT22;669;50.206;9.998;2024-01-27T08:20:48;4.80;11.00
1351;DHT22;669;50.206;9.998;2024-01-27T08:23:16;5.00;11.80
1351;DHT22;669;50.206;9.998;2024-01-27T08:25:46;5.00;8.70
1351;DHT22;669;50.206;9.998;2024-01-27T08:28:16;5.00;7.00
1351;DHT22;669;50.206;9.998;2024-01-27T08:30:44;4.90;6.80
1351;DHT22;669;50.206;9.998;2024-01-27T08:33:12;4.70;7.50
1351;DHT22;669;50.206;9.998;2024-01-27T08:35:41;4.70;8.90
1351;DHT22;669;50.206;9.998;2024-01-27T08:38:09;4.60;8.70
1351;DHT22;669;50.206;9.998;2024-01-27T08:40:37;4.50;8.70
1351;DHT22;669;50.206;9.998;2024-01-27T08:43:06;4.40;8.10
1351;DHT22;669;50.206;9.998;2024-01-27T08:45:34;4.20;8.90
1351;DHT22;669;50.206;9.998;2024-01-27T08:48:02;4.20;9.70
1351;DHT22;669;50.206;9.998;2024-01-27T08:50:31;4.10;11.00
1351;DHT22;669;50.206;9.998;2024-01-27T08:52:59;4.00;12.00
1351;DHT22;669;50.206;9.998;2024-01-27T08:55:26;4.00;12.20
1351;DHT22;669;50.206;9.998;2024-01-27T08:57:55;4.00;12.50
1351;DHT22;669;50.206;9.998;2024-01-27T09:00:25;4.00;11.50
1351;DHT22;669;50.206;9.998;2024-01-27T09:02:53;4.00;12.80
1351;DHT22;669;50.206;9.998;2024-01-27T09:05:21;3.90;13.70
1351;DHT22;669;50.206;9.998;2024-01-27T09:07:49;3.90;14.60
1351;DHT22;669;50.206;9.998;2024-01-27T09:10:17;3.80;13.80
1351;DHT22;669;50.206;9.998;2024-01-27T09:12:45;3.80;12.80
1351;DHT22;669;50.206;9.998;2024-01-27T09:15:13;3.80;13.50
1351;DHT22;669;50.206;9.998;2024-01-27T09:17:43;3.90;13.90
1351;DHT22;669;50.206;9.998;2024-01-27T09:20:11;3.90;13.20
1351;DHT22;669;50.206;9.998;2024-01-27T09:22:39;3.90;12.10
1351;DHT22;669;50.206;9.998;2024-01-27T09:25:08;3.90;12.40
1351;DHT22;669;50.206;9.998;2024-01-27T09:27:36;3.90;12.70
1351;DHT22;669;50.206;9.998;2024-01-27T09:30:05;4.00;12.70
1351;DHT22;669;50.206;9.998;2024-01-27T09:32:34;4.00;11.90
1351;DHT22;669;50.206;9.998;2024-01-27T09:35:04;4.20;11.30
1351;DHT22;669;50.206;9.998;2024-01-27T09:37:32;4.30;11.40
1351;DHT22;669;50.206;9.998;2024-01-27T09:40:00;4.40;10.80
1351;DHT22;669;50.206;9.998;2024-01-27T09:42:30;4.40;10.20
1351;DHT22;669;50.206;9.998;2024-01-27T09:45:02;4.50;10.40
1351;DHT22;669;50.206;9.998;2024-01-27T09:47:30;4.60;9.70
1351;DHT22;669;50.206;9.998;2024-01-27T09:49:58;4.70;9.60
1351;DHT22;669;50.206;9.998;2024-01-27T09:52:28;4.90;8.60
1351;DHT22;669;50.206;9.998;2024-01-27T09:54:56;5.00;8.00
1351;DHT22;669;50.206;9.998;2024-01-27T09:57:24;5.00;7.30
1351;DHT22;669;50.206;9.998;2024-01-27T09:59:52;5.00;8.40
1351;DHT22;669;50.206;9.998;2024-01-27T10:02:20;5.00;7.80
1351;DHT22;669;50.206;9.998;2024-01-27T10:04:49;5.00;7.90
1351;DHT22;669;50.206;9.998;2024-01-27T10:07:20;5.00;8.30
1351;DHT22;669;50.206;9.998;2024-01-27T10:09:50;5.10;7.30
1351;DHT22;669;50.206;9.998;2024-01-27T10:12:21;5.10;7.60
1351;DHT22;669;50.206;9.998;2024-01-27T10:14:50;5.20;7.40
1351;DHT22;669;50.206;9.998;2024-01-27T10:17:23;5.30;7.20
1351;DHT22;669;50.206;9.998;2024-01-27T10:20:01;5.50;5.30
1351;DHT22;669;50.206;9.998;2024-01-27T10:22:37;5.60;5.70
1351;DHT22;669;50.206;9.998;2024-01-27T10:25:08;5.60;4.40
1351;DHT22;669;50.206;9.998;2024-01-27T10:27:37;5.60;4.70
1351;DHT22;669;50.206;9.998;2024-01-27T10:30:06;5.70;5.80
1351;DHT22;669;50.206;9.998;2024-01-27T10:32:43;5.90;4.40
1351;DHT22;669;50.206;9.998;2024-01-27T10:35:11;5.90;5.20
1351;DHT22;669;50.206;9.998;2024-01-27T10:37:39;5.90;5.90
1351;DHT22;669;50.206;9.998;2024-01-27T10:40:09;6.20;5.10
1351;DHT22;669;50.206;9.998;2024-01-27T10:42:39;6.30;4.40
1351;DHT22;669;50.206;9.998;2024-01-27T10:45:08;6.50;4.70
1351;DHT22;669;50.206;9.998;2024-01-27T10:47:38;6.70;2.80
1351;DHT22;669;50.206;9.998;2024-01-27T10:50:09;6.90;2.10
1351;DHT22;669;50.206;9.998;2024-01-27T10:52:38;7.00;1.90
1351;DHT22;669;50.206;9.998;2024-01-27T10:55:10;6.90;2.20
1351;DHT22;669;50.206;9.998;2024-01-27T10:57:40;7.00;2.00
1351;DHT22;669;50.206;9.998;2024-01-27T11:00:09;7.10;1.00
1351;DHT22;669;50.206;9.998;2024-01-27T11:02:38;7.20;1.00
1351;DHT22;669;50.206;9.998;2024-01-27T11:05:10;7.40;1.00
1351;DHT22;669;50.206;9.998;2024-01-27T11:07:39;7.30;1.00
1351;DHT22;669;50.206;9.998;2024-01-27T11:10:10;7.30;1.00
1351;DHT22;669;50.206;9.998;2024-01-27T11:12:39;7.40;1.00
1351;DHT22;669;50.206;9.998;2024-01-27T11:15:08;7.50;1.00
1351;DHT22;669;50.206;9.998;2024-01-27T11:17:39;7.60;1.00
1351;DHT22;669;50.206;9.998;2024-01-27T11:20:09;7.60;1.00
1351;DHT22;669;50.206;9.998;2024-01-27T11:22:38;7.60;1.00
1351;DHT22;669;50.206;9.998;2024-01-27T11:25:15;7.70;1.00
1351;DHT22;669;50.206;9.998;2024-01-27T11:27:45;8.00;1.00
1351;DHT22;669;50.206;9.998;2024-01-27T11:30:27;8.10;1.00
1351;DHT22;669;50.206;9.998;2024-01-27T11:32:56;8.20;1.00
1351;DHT22;669;50.206;9.998;2024-01-27T11:35:24;8.30;1.00
1351;DHT22;669;50.206;9.998;2024-01-27T11:37:53;8.30;1.00
1351;DHT22;669;50.206;9.998;2024-01-27T11:40:23;8.40;1.00
1351;DHT22;669;50.206;9.998;2024-01-27T11:42:54;8.50;1.00
1351;DHT22;669;50.206;9.998;2024-01-27T11:45:23;8.70;1.00
1351;DHT22;669;50.206;9.998;2024-01-27T11:47:51;8.50;1.00
1351;DHT22;669;50.206;9.998;2024-01-27T11:50:19;8.50;1.00
1351;DHT22;669;50.206;9.998;2024-01-27T11:52:48;8.70;1.00
1351;DHT22;669;50.206;9.998;2024-01-27T11:55:16;8.70;1.00
1351;DHT22;669;50.206;9.998;2024-01-27T11:57:47;9.10;1.00
1351;DHT22;669;50.206;9.998;2024-01-27T12:00:15;9.30;1.00
1351;DHT22;669;50.206;9.998;2024-01-27T12:02:43;9.50;1.00
1351;DHT22;669;50.206;9.998;2024-01-27T12:05:11;9.40;1.00
1351;DHT22;669;50.206;9.998;2024-01-27T12:07:42;8.90;1.00
1351;DHT22;669;50.206;9.998;2024-01-27T12:10:10;8.90;1.00
1351;DHT22;669;50.206;9.998;2024-01-27T12:12:38;8.90;1.00
1351;DHT22;669;50.206;9.998;2024-01-27T12:15:08;8.80;1.00
1351;DHT22;669;50.206;9.998;2024-01-27T12:17:36;8.70;1.00
1351;DHT22;669;50.206;9.998;2024-01-27T12:20:14;8.90;1.00
1351;DHT22;669;50.206;9.998;2024-01-27T12:22:43;9.20;1.00
1351;DHT22;669;50.206;9.998;2024-01-27T12:25:12;9.20;1.00
1351;DHT22;669;50.206;9.998;2024-01-27T12:27:41;9.40;1.00
1351;DHT22;669;50.206;9.998;2024-01-27T12:30:12;9.50;1.00
1351;DHT22;669;50.206;9.998;2024-01-27T12:32:40;9.60;1.00
1351;DHT22;669;50.206;9.998;2024-01-27T12:35:08;9.90;1.00
1351;DHT22;669;50.206;9.998;2024-01-27T12:37:37;10.00;1.00
1351;DHT22;669;50.206;9.998;2024-01-27T12:40:17;10.10;1.00
1351;DHT22;669;50.206;9.998;2024-01-27T12:42:50;9.90;1.00
1351;DHT22;669;50.206;9.998;2024-01-27T12:45:19;10.00;1.00
1351;DHT22;669;50.206;9.998;2024-01-27T12:47:47;10.20;1.00
1351;DHT22;669;50.206;9.998;2024-01-27T12:50:15;10.30;1.00
1351;DHT22;669;50.206;9.998;2024-01-27T12:52:44;10.20;1.00
1351;DHT22;669;50.206;9.998;2024-01-27T12:55:12;10.30;1.00
1351;DHT22;669;50.206;9.998;2024-01-27T12:57:40;10.60;1.00
1351;DHT22;669;50.206;9.998;2024-01-27T13:00:08;10.80;1.00
1351;DHT22;669;50.206;9.998;2024-01-27T13:02:39;10.90;1.00
1351;DHT22;669;50.206;9.998;2024-01-27T13:05:08;10.60;1.00
1351;DHT22;669;50.206;9.998;2024-01-27T13:07:36;10.40;1.00
1351;DHT22;669;50.206;9.998;2024-01-27T13:10:05;10.30;1.00
1351;DHT22;669;50.206;9.998;2024-01-27T13:12:32;10.40;1.00
1351;DHT22;669;50.206;9.998;2024-01-27T13:15:02;10.40;1.00
1351;DHT22;669;50.206;9.998;2024-01-27T13:17:30;10.40;1.00
1351;DHT22;669;50.206;9.998;2024-01-27T13:20:01;10.50;1.00
1351;DHT22;669;50.206;9.998;2024-01-27T13:22:28;10.50;1.00
1351;DHT22;669;50.206;9.998;2024-01-27T13:24:56;10.50;1.00
1351;DHT22;669;50.206;9.998;2024-01-27T13:27:31;10.60;1.00
1351;DHT22;669;50.206;9.998;2024-01-27T13:30:00;10.70;1.00
1351;DHT22;669;50.206;9.998;2024-01-27T13:32:28;10.80;1.00
1351;DHT22;669;50.206;9.998;2024-01-27T13:34:56;10.90;1.00
1351;DHT22;669;50.206;9.998;2024-01-27T13:37:26;10.90;1.00
1351;DHT22;669;50.206;9.998;2024-01-27T13:39:54;10.90;1.00
1351;DHT22;669;50.206;9.998;2024-01-27T13:42:23;10.70;1.00
1351;DHT22;669;50.206;9.998;2024-01-27T13:44:51;10.60;1.00
1351;DHT22;669;50.206;9.998;2024-01-27T13:47:19;10.50;1.00
1351;DHT22;669;50.206;9.998;2024-01-27T13:49:47;10.50;1.00
1351;DHT22;669;50.206;9.998;2024-01-27T13:52:16;10.50;1.00
1351;DHT22;669;50.206;9.998;2024-01-27T13:54:45;10.40;1.00
1351;DHT22;669;50.206;9.998;2024-01-27T13:57:15;10.30;1.00
1351;DHT22;669;50.206;9.998;2024-01-27T13:59:44;10.30;1.00
1351;DHT22;669;50.206;9.998;2024-01-27T14:02:12;10.50;1.00
1351;DHT22;669;50.206;9.998;2024-01-27T14:04:40;10.50;1.00
1351;DHT22;669;50.206;9.998;2024-01-27T14:07:08;10.40;1.00
1351;DHT22;669;50.206;9.998;2024-01-27T14:09:36;10.20;1.00
1351;DHT22;669;50.206;9.998;2024-01-27T14:12:07;10.20;1.00
1351;DHT22;669;50.206;9.998;2024-01-27T14:14:35;10.10;1.00
1351;DHT22;669;50.206;9.998;2024-01-27T14:17:05;10.00;1.00
1351;DHT22;669;50.206;9.998;2024-01-27T14:19:33;9.80;1.00
1351;DHT22;669;50.206;9.998;2024-01-27T14:22:02;9.90;1.00
1351;DHT22;669;50.206;9.998;2024-01-27T14:24:30;9.80;1.00
1351;DHT22;669;50.206;9.998;2024-01-27T14:27:00;9.70;1.00
1351;DHT22;669;50.206;9.998;2024-01-27T14:29:29;9.60;1.00
1351;DHT22;669;50.206;9.998;2024-01-27T14:31:58;9.70;1.00
1351;DHT22;669;50.206;9.998;2024-01-27T14:34:26;9.70;1.00
1351;DHT22;669;50.206;9.998;2024-01-27T14:36:54;9.60;1.00
1351;DHT22;669;50.206;9.998;2024-01-27T14:39:22;9.60;1.00
1351;DHT22;669;50.206;9.998;2024-01-27T14:41:50;9.50;1.00
1351;DHT22;669;50.206;9.998;2024-01-27T14:44:18;9.40;1.00
1351;DHT22;669;50.206;9.998;2024-01-27T14:46:47;9.30;1.00
1351;DHT22;669;50.206;9.998;2024-01-27T14:49:16;9.20;1.00
1351;DHT22;669;50.206;9.998;2024-01-27T14:51:44;9.10;1.00
1351;DHT22;669;50.206;9.998;2024-01-27T14:54:12;9.10;1.00
1351;DHT22;669;50.206;9.998;2024-01-27T14:56:40;9.00;1.00
1351;DHT22;669;50.206;9.998;2024-01-27T14:59:07;8.90;1.00
1351;DHT22;669;50.206;9.998;2024-01-27T15:01:35;8.90;1.00
1351;DHT22;669;50.206;9.998;2024-01-27T15:04:05;8.90;1.00
1351;DHT22;669;50.206;9.998;2024-01-27T15:06:33;8.80;1.00
1351;DHT22;669;50.206;9.998;2024-01-27T15:09:02;8.70;1.00
1351;DHT22;669;50.206;9.998;2024-01-27T15:11:30;8.50;1.00
1351;DHT22;669;50.206;9.998;2024-01-27T15:13:58;8.40;1.00
1351;DHT22;669;50.206;9.998;2024-01-27T15:16:26;8.20;1.00
1351;DHT22;669;50.206;9.998;2024-01-27T15:18:55;8.00;1.00
1351;DHT22;669;50.206;9.998;2024-01-27T15:21:25;7.90;1.00
1351;DHT22;669;50.206;9.998;2024-01-27T15:23:56;7.70;1.00
1351;DHT22;669;50.206;9.998;2024-01-27T15:26:24;7.50;1.00
1351;DHT22;669;50.206;9.998;2024-01-27T15:28:52;7.30;1.00
1351;DHT22;669;50.206;9.998;2024-01-27T15:31:20;7.20;1.00
1351;DHT22;669;50.206;9.998;2024-01-27T15:33:48;6.90;1.00
1351;DHT22;669;50.206;9.998;2024-01-27T15:36:16;6.70;1.00
1351;DHT22;669;50.206;9.998;2024-01-27T15:38:45;6.50;1.00
1351;DHT22;669;50.206;9.998;2024-01-27T15:41:13;6.30;1.00
1351;DHT22;669;50.206;9.998;2024-01-27T15:43:42;6.10;1.00
1351;DHT22;669;50.206;9.998;2024-01-27T15:46:14;5.90;1.00
1351;DHT22;669;50.206;9.998;2024-01-27T15:48:42;5.80;1.00
1351;DHT22;669;50.206;9.998;2024-01-27T15:51:10;5.60;1.00
1351;DHT22;669;50.206;9.998;2024-01-27T15:53:38;5.40;1.00
1351;DHT22;669;50.206;9.998;2024-01-27T15:56:07;5.20;1.00
1351;DHT22;669;50.206;9.998;2024-01-27T15:58:35;5.00;1.00
1351;DHT22;669;50.206;9.998;2024-01-27T16:01:03;4.80;1.00
1351;DHT22;669;50.206;9.998;2024-01-27T16:03:31;4.70;1.00
1351;DHT22;669;50.206;9.998;2024-01-27T16:05:59;4.50;1.00
1351;DHT22;669;50.206;9.998;2024-01-27T16:08:27;4.40;1.00
1351;DHT22;669;50.206;9.998;2024-01-27T16:10:55;4.20;2.20
1351;DHT22;669;50.206;9.998;2024-01-27T16:13:24;4.00;3.00
1351;DHT22;669;50.206;9.998;2024-01-27T16:15:52;3.90;3.80
1351;DHT22;669;50.206;9.998;2024-01-27T16:18:20;3.90;4.00
1351;DHT22;669;50.206;9.998;2024-01-27T16:20:48;3.70;4.50
1351;DHT22;669;50.206;9.998;2024-01-27T16:23:16;3.70;6.10
1351;DHT22;669;50.206;9.998;2024-01-27T16:25:44;3.60;7.40
1351;DHT22;669;50.206;9.998;2024-01-27T16:28:12;3.60;8.00
1351;DHT22;669;50.206;9.998;2024-01-27T16:30:42;3.50;8.40
1351;DHT22;669;50.206;9.998;2024-01-27T16:33:10;3.50;9.10
1351;DHT22;669;50.206;9.998;2024-01-27T16:35:38;3.50;9.60
1351;DHT22;669;50.206;9.998;2024-01-27T16:38:06;3.30;7.00
1351;DHT22;669;50.206;9.998;2024-01-27T16:40:34;3.10;8.70
1351;DHT22;669;50.206;9.998;2024-01-27T16:43:02;3.10;9.60
1351;DHT22;669;50.206;9.998;2024-01-27T16:45:30;3.00;9.70
1351;DHT22;669;50.206;9.998;2024-01-27T16:48:01;2.90;9.90